createdAt,value
2019-05-06T00:00:27.437Z,101601.00
2019-05-06T00:01:34.359Z,101604.41
2019-05-06T00:02:43.586Z,101600.59
2019-05-06T00:03:50.482Z,101603.08
2019-05-06T00:04:57.262Z,101606.47
2019-05-06T00:06:04.267Z,101603.91
2019-05-06T00:07:11.318Z,101606.45
2019-05-06T00:08:18.364Z,101604.31
2019-05-06T00:09:25.929Z,101600.06
2019-05-06T00:10:35.771Z,101610.23
2019-05-06T00:11:44.729Z,101605.99
2019-05-06T00:12:53.538Z,101609.77
2019-05-06T00:14:00.168Z,101607.63
2019-05-06T00:15:08.107Z,101606.77
2019-05-06T00:16:14.836Z,101601.64
2019-05-06T00:17:23.820Z,101601.19
2019-05-06T00:18:30.699Z,101599.01
2019-05-06T00:19:37.418Z,101596.83
2019-05-06T00:20:44.554Z,101598.09
2019-05-06T00:21:51.321Z,101593.83
2019-05-06T00:23:04.407Z,101600.56
2019-05-06T00:24:11.211Z,101598.39
2019-05-06T00:25:24.263Z,101598.34
2019-05-06T00:26:49.067Z,101594.06
2019-05-06T00:28:20.987Z,101597.46
2019-05-06T00:29:30.371Z,101595.33
2019-05-06T00:30:37.211Z,101593.09
2019-05-06T00:31:44.082Z,101593.91
2019-05-06T00:32:50.871Z,101586.67
2019-05-06T00:33:58.424Z,101587.94
2019-05-06T00:35:06.215Z,101584.05
2019-05-06T00:36:14.159Z,101584.09
2019-05-06T00:37:21.023Z,101581.92
2019-05-06T00:38:28.163Z,101584.89
2019-05-06T00:39:45.282Z,101579.36
2019-05-06T00:40:54.674Z,101582.23
2019-05-06T00:42:09.055Z,101583.06
2019-05-06T00:43:16.143Z,101583.84
2019-05-06T00:44:23.903Z,101584.27
2019-05-06T00:45:31.247Z,101579.19
2019-05-06T00:46:38.032Z,101583.39
2019-05-06T00:47:44.793Z,101586.37
2019-05-06T00:48:51.529Z,101582.50
2019-05-06T00:49:58.608Z,101582.09
2019-05-06T00:51:05.401Z,101581.59
2019-05-06T00:52:13.622Z,101581.92
2019-05-06T00:53:23.823Z,101581.09
2019-05-06T00:54:30.916Z,101584.15
2019-05-06T00:55:38.206Z,101583.31
2019-05-06T00:56:44.946Z,101581.61
2019-05-06T00:57:54.313Z,101580.75
2019-05-06T00:59:00.664Z,101581.16
2019-05-06T01:00:07.509Z,101581.98
2019-05-06T01:01:25.903Z,101583.25
2019-05-06T01:02:23.461Z,101584.56
2019-05-06T01:03:30.497Z,101582.45
2019-05-06T01:04:37.928Z,101577.84
2019-05-06T01:05:44.761Z,101580.37
2019-05-06T01:06:51.860Z,101579.09
2019-05-06T01:07:59.236Z,101576.91
2019-05-06T01:09:10.757Z,101572.67
2019-05-06T01:10:18.510Z,101576.91
2019-05-06T01:11:26.021Z,101574.27
2019-05-06T01:12:34.652Z,101571.67
2019-05-06T01:13:49.874Z,101571.98
2019-05-06T01:14:57.408Z,101572.41
2019-05-06T01:16:04.713Z,101574.57
2019-05-06T01:17:13.307Z,101573.28
2019-05-06T01:18:20.643Z,101572.87
2019-05-06T01:19:28.263Z,101569.02
2019-05-06T01:20:34.995Z,101568.13
2019-05-06T01:21:41.757Z,101570.62
2019-05-06T01:22:48.801Z,101569.81
2019-05-06T01:23:55.965Z,101573.66
2019-05-06T01:25:03.977Z,101571.59
2019-05-06T01:26:11.539Z,101575.41
2019-05-06T01:27:18.320Z,101578.41
2019-05-06T01:28:25.050Z,101571.66
2019-05-06T01:29:32.049Z,101574.27
2019-05-06T01:30:38.879Z,101575.93
2019-05-06T01:31:46.214Z,101574.66
2019-05-06T01:32:54.335Z,101570.81
2019-05-06T01:34:04.108Z,101570.81
2019-05-06T01:35:10.913Z,101577.69
2019-05-06T01:36:17.678Z,101574.66
2019-05-06T01:37:27.449Z,101579.34
2019-05-06T01:39:10.637Z,101578.12
2019-05-06T01:40:37.034Z,101576.91
2019-05-06T01:42:04.451Z,101582.06
2019-05-06T01:43:16.661Z,101585.47
2019-05-06T01:44:24.404Z,101583.84
2019-05-06T01:45:31.380Z,101585.56
2019-05-06T01:46:38.127Z,101584.75
2019-05-06T01:47:44.888Z,101583.91
2019-05-06T01:48:53.651Z,101581.41
2019-05-06T01:50:00.593Z,101578.39
2019-05-06T01:51:07.709Z,101575.94
2019-05-06T01:52:14.665Z,101584.05
2019-05-06T01:53:23.879Z,101578.19
2019-05-06T01:54:30.743Z,101582.78
2019-05-06T01:55:37.525Z,101579.84
2019-05-06T01:56:44.673Z,101577.76
2019-05-06T01:57:51.426Z,101579.03
2019-05-06T01:58:58.820Z,101578.60
2019-05-06T02:00:09.024Z,101585.81
2019-05-06T02:01:15.950Z,101577.78
2019-05-06T02:02:23.895Z,101583.75
2019-05-06T02:03:31.558Z,101581.31
2019-05-06T02:04:38.721Z,101584.72
2019-05-06T02:05:46.097Z,101585.02
2019-05-06T02:06:54.586Z,101581.69
2019-05-06T02:08:03.868Z,101580.83
2019-05-06T02:09:16.862Z,101584.28
2019-05-06T02:10:23.923Z,101583.09
2019-05-06T02:11:31.144Z,101585.64
2019-05-06T02:12:38.311Z,101582.73
2019-05-06T02:13:45.893Z,101582.30
2019-05-06T02:14:54.290Z,101579.78
2019-05-06T02:16:01.291Z,101573.88
2019-05-06T02:17:08.351Z,101570.11
2019-05-06T02:18:17.022Z,101570.92
2019-05-06T02:19:24.352Z,101570.06
2019-05-06T02:20:31.526Z,101567.87
2019-05-06T02:22:06.280Z,101570.85
2019-05-06T02:23:17.319Z,101567.45
2019-05-06T02:24:30.456Z,101574.73
2019-05-06T02:25:49.047Z,101571.75
2019-05-06T02:26:55.802Z,101572.20
2019-05-06T02:28:03.963Z,101567.93
2019-05-06T02:29:15.215Z,101569.23
2019-05-06T02:30:30.484Z,101567.17
2019-05-06T02:32:00.746Z,101571.00
2019-05-06T02:33:40.599Z,101578.64
2019-05-06T02:35:05.178Z,101575.26
2019-05-06T02:36:48.335Z,101576.89
2019-05-06T02:37:55.414Z,101579.44
2019-05-06T02:39:03.623Z,101575.55
2019-05-06T02:40:26.178Z,101575.59
2019-05-06T02:41:33.824Z,101571.31
2019-05-06T02:42:43.173Z,101571.31
2019-05-06T02:43:49.816Z,101570.95
2019-05-06T02:44:56.745Z,101572.23
2019-05-06T02:46:04.196Z,101570.13
2019-05-06T02:47:23.143Z,101569.28
2019-05-06T02:48:47.711Z,101569.65
2019-05-06T02:49:57.999Z,101568.79
2019-05-06T02:51:07.996Z,101567.95
2019-05-06T02:52:14.750Z,101570.05
2019-05-06T02:53:23.732Z,101567.04
2019-05-06T02:54:34.144Z,101562.86
2019-05-06T02:55:38.962Z,101557.42
2019-05-06T02:56:46.079Z,101554.47
2019-05-06T02:57:53.705Z,101557.80
2019-05-06T02:59:03.793Z,101551.84
2019-05-06T03:00:14.338Z,101556.53
2019-05-06T03:01:23.289Z,101556.53
2019-05-06T03:02:42.014Z,101556.94
2019-05-06T03:03:38.424Z,101553.14
2019-05-06T03:04:45.235Z,101559.09
2019-05-06T03:05:53.201Z,101543.44
2019-05-06T03:07:03.554Z,101548.11
2019-05-06T03:08:09.267Z,101550.68
2019-05-06T03:09:16.336Z,101542.64
2019-05-06T03:10:24.709Z,101542.18
2019-05-06T03:11:33.215Z,101543.45
2019-05-06T03:12:42.890Z,101546.44
2019-05-06T03:13:48.523Z,101545.15
2019-05-06T03:14:55.630Z,101546.84
2019-05-06T03:16:05.395Z,101548.52
2019-05-06T03:17:13.727Z,101542.56
2019-05-06T03:18:19.424Z,101545.56
2019-05-06T03:19:27.338Z,101537.53
2019-05-06T03:21:03.888Z,101543.88
2019-05-06T03:22:34.133Z,101542.64
2019-05-06T03:23:43.774Z,101542.16
2019-05-06T03:25:07.219Z,101540.44
2019-05-06T03:26:14.816Z,101542.97
2019-05-06T03:27:23.495Z,101542.50
2019-05-06T03:28:33.114Z,101546.30
2019-05-06T03:29:38.936Z,101544.16
2019-05-06T03:30:46.455Z,101540.34
2019-05-06T03:31:56.267Z,101547.54
2019-05-06T03:34:35.929Z,101546.72
2019-05-06T03:35:36.412Z,101542.05
2019-05-06T03:36:34.573Z,101545.89
2019-05-06T03:37:37.641Z,101548.43
2019-05-06T03:38:44.514Z,101539.10
2019-05-06T03:39:52.926Z,101544.17
2019-05-06T03:41:02.986Z,101545.91
2019-05-06T03:42:08.902Z,101550.56
2019-05-06T03:43:16.542Z,101548.91
2019-05-06T03:44:24.150Z,101545.94
2019-05-06T03:46:08.372Z,101542.55
2019-05-06T03:47:49.470Z,101540.47
2019-05-06T03:49:03.525Z,101535.80
2019-05-06T03:50:09.523Z,101542.12
2019-05-06T03:51:16.352Z,101537.88
2019-05-06T03:52:25.504Z,101541.30
2019-05-06T03:53:34.584Z,101537.92
2019-05-06T03:54:45.115Z,101539.62
2019-05-06T03:55:54.367Z,101532.84
2019-05-06T03:57:03.241Z,101532.37
2019-05-06T03:58:13.410Z,101534.92
2019-05-06T03:59:23.324Z,101539.62
2019-05-06T04:00:33.180Z,101541.34
2019-05-06T04:01:38.993Z,101537.94
2019-05-06T04:02:45.719Z,101534.96
2019-05-06T04:03:56.990Z,101541.32
2019-05-06T04:05:03.929Z,101543.03
2019-05-06T04:06:09.704Z,101538.34
2019-05-06T04:07:17.035Z,101538.81
2019-05-06T04:08:25.802Z,101544.29
2019-05-06T04:09:36.296Z,101541.32
2019-05-06T04:10:43.539Z,101544.32
2019-05-06T04:11:53.869Z,101542.22
2019-05-06T04:13:04.108Z,101542.61
2019-05-06T04:14:13.908Z,101540.48
2019-05-06T04:15:22.980Z,101547.34
2019-05-06T04:16:55.033Z,101540.12
2019-05-06T04:18:06.930Z,101545.67
2019-05-06T04:19:23.798Z,101543.52
2019-05-06T04:20:54.295Z,101544.80
2019-05-06T04:22:25.660Z,101538.90
2019-05-06T04:23:44.753Z,101536.73
2019-05-06T04:25:14.565Z,101543.09
2019-05-06T04:26:28.425Z,101545.22
2019-05-06T04:27:43.793Z,101543.56
2019-05-06T04:28:53.452Z,101541.89
2019-05-06T04:29:59.461Z,101539.41
2019-05-06T04:31:07.576Z,101544.50
2019-05-06T04:32:14.865Z,101544.53
2019-05-06T04:33:23.690Z,101539.91
2019-05-06T04:34:33.150Z,101541.63
2019-05-06T04:35:39.341Z,101539.91
2019-05-06T04:36:46.360Z,101541.17
2019-05-06T04:37:54.120Z,101547.95
2019-05-06T04:39:04.150Z,101539.89
2019-05-06T04:40:12.984Z,101541.56
2019-05-06T04:41:19.132Z,101540.70
2019-05-06T04:42:27.019Z,101542.41
2019-05-06T04:43:34.712Z,101537.36
2019-05-06T04:44:43.845Z,101534.39
2019-05-06T04:45:50.322Z,101538.57
2019-05-06T04:46:57.353Z,101537.31
2019-05-06T04:48:05.210Z,101533.11
2019-05-06T04:49:14.953Z,101535.25
2019-05-06T04:50:24.039Z,101537.36
2019-05-06T04:51:33.367Z,101533.51
2019-05-06T04:52:39.444Z,101528.84
2019-05-06T04:53:47.558Z,101536.47
2019-05-06T04:54:54.513Z,101536.88
2019-05-06T04:56:03.931Z,101539.87
2019-05-06T04:57:12.714Z,101541.58
2019-05-06T04:58:18.467Z,101538.23
2019-05-06T04:59:25.554Z,101539.92
2019-05-06T05:00:33.255Z,101535.69
2019-05-06T05:01:40.472Z,101542.08
2019-05-06T05:02:47.710Z,101540.82
2019-05-06T05:03:54.434Z,101542.50
2019-05-06T05:05:04.168Z,101539.95
2019-05-06T05:06:10.465Z,101544.20
2019-05-06T05:07:18.366Z,101542.52
2019-05-06T05:08:37.213Z,101544.23
2019-05-06T05:09:43.928Z,101545.95
2019-05-06T05:11:05.620Z,101547.20
2019-05-06T05:12:33.649Z,101548.07
2019-05-06T05:14:13.413Z,101543.83
2019-05-06T05:15:44.497Z,101549.34
2019-05-06T05:17:02.282Z,101552.78
2019-05-06T05:18:23.305Z,101554.93
2019-05-06T05:19:32.749Z,101549.80
2019-05-06T05:20:45.625Z,101551.09
2019-05-06T05:21:48.368Z,101553.22
2019-05-06T05:22:55.414Z,101550.27
2019-05-06T05:24:02.489Z,101553.66
2019-05-06T05:25:09.632Z,101549.41
2019-05-06T05:26:16.805Z,101553.69
2019-05-06T05:27:23.529Z,101552.39
2019-05-06T05:28:32.016Z,101555.77
2019-05-06T05:29:39.026Z,101548.14
2019-05-06T05:30:46.331Z,101552.37
2019-05-06T05:31:53.369Z,101553.25
2019-05-06T05:33:00.096Z,101549.42
2019-05-06T05:34:06.862Z,101549.86
2019-05-06T05:35:14.171Z,101549.88
2019-05-06T05:36:23.221Z,101554.57
2019-05-06T05:37:30.394Z,101554.55
2019-05-06T05:38:37.148Z,101553.30
2019-05-06T05:39:44.748Z,101554.57
2019-05-06T05:40:52.363Z,101553.28
2019-05-06T05:42:04.284Z,101548.62
2019-05-06T05:43:22.792Z,101557.97
2019-05-06T05:44:35.296Z,101555.41
2019-05-06T05:45:42.496Z,101552.46
2019-05-06T05:46:49.278Z,101553.71
2019-05-06T05:47:57.637Z,101556.24
2019-05-06T05:49:27.447Z,101546.52
2019-05-06T05:50:38.012Z,101555.42
2019-05-06T05:51:44.798Z,101549.05
2019-05-06T05:52:52.106Z,101550.33
2019-05-06T05:53:58.854Z,101546.92
2019-05-06T05:55:06.093Z,101552.89
2019-05-06T05:56:13.358Z,101546.94
2019-05-06T05:57:22.547Z,101550.38
2019-05-06T05:58:29.733Z,101551.20
2019-05-06T05:59:36.915Z,101556.31
2019-05-06T06:00:44.393Z,101553.33
2019-05-06T06:01:52.949Z,101552.91
2019-05-06T06:03:00.416Z,101555.05
2019-05-06T06:04:07.729Z,101552.06
2019-05-06T06:05:15.057Z,101556.75
2019-05-06T06:06:22.313Z,101556.32
2019-05-06T06:07:29.311Z,101554.63
2019-05-06T06:08:36.950Z,101558.47
2019-05-06T06:09:55.046Z,101558.89
2019-05-06T06:11:07.362Z,101559.73
2019-05-06T06:12:14.532Z,101552.08
2019-05-06T06:13:22.285Z,101556.34
2019-05-06T06:14:48.120Z,101553.36
2019-05-06T06:16:14.098Z,101555.47
2019-05-06T06:17:40.302Z,101553.78
2019-05-06T06:18:54.788Z,101550.80
2019-05-06T06:20:04.592Z,101544.42
2019-05-06T06:21:32.310Z,101549.52
2019-05-06T06:22:39.848Z,101548.23
2019-05-06T06:23:47.106Z,101548.67
2019-05-06T06:24:54.215Z,101555.91
2019-05-06T06:26:03.870Z,101552.51
2019-05-06T06:27:09.756Z,101550.38
2019-05-06T06:28:16.470Z,101550.38
2019-05-06T06:29:23.255Z,101550.81
2019-05-06T06:30:49.221Z,101551.23
2019-05-06T06:32:17.243Z,101553.38
2019-05-06T06:33:24.313Z,101552.07
2019-05-06T06:34:35.891Z,101552.45
2019-05-06T06:36:02.855Z,101556.25
2019-05-06T06:37:46.726Z,101546.45
2019-05-06T06:39:02.160Z,101551.95
2019-05-06T06:40:10.216Z,101548.05
2019-05-06T06:41:17.187Z,101554.39
2019-05-06T06:42:24.142Z,101557.83
2019-05-06T06:43:32.429Z,101558.63
2019-05-06T06:44:39.379Z,101550.56
2019-05-06T06:45:46.128Z,101550.56
2019-05-06T06:46:52.853Z,101557.43
2019-05-06T06:47:59.783Z,101556.55
2019-05-06T06:49:06.679Z,101554.00
2019-05-06T06:50:14.589Z,101554.84
2019-05-06T06:51:23.339Z,101554.00
2019-05-06T06:52:32.403Z,101554.44
2019-05-06T06:53:38.423Z,101556.16
2019-05-06T06:54:45.291Z,101558.66
2019-05-06T06:55:53.646Z,101556.46
2019-05-06T06:57:16.908Z,101553.45
2019-05-06T06:58:32.390Z,101560.23
2019-05-06T06:59:49.746Z,101557.34
2019-05-06T07:01:16.937Z,101558.61
2019-05-06T07:02:49.870Z,101561.91
2019-05-06T07:04:10.286Z,101557.51
2019-05-06T07:05:35.057Z,101560.81
2019-05-06T07:06:48.273Z,101560.80
2019-05-06T07:07:55.131Z,101564.49
2019-05-06T07:09:02.730Z,101561.95
2019-05-06T07:10:12.821Z,101564.93
2019-05-06T07:11:20.005Z,101568.27
2019-05-06T07:12:27.186Z,101564.88
2019-05-06T07:13:34.877Z,101562.28
2019-05-06T07:14:42.786Z,101561.33
2019-05-06T07:15:52.023Z,101562.54
2019-05-06T07:16:58.518Z,101559.05
2019-05-06T07:18:05.456Z,101558.60
2019-05-06T07:19:14.554Z,101558.93
2019-05-06T07:20:23.139Z,101551.97
2019-05-06T07:21:34.909Z,101562.23
2019-05-06T07:22:42.518Z,101554.09
2019-05-06T07:23:50.012Z,101559.12
2019-05-06T07:24:56.965Z,101557.73
2019-05-06T07:26:03.682Z,101561.53
2019-05-06T07:27:15.308Z,101561.41
2019-05-06T07:28:22.804Z,101559.61
2019-05-06T07:29:29.986Z,101558.53
2019-05-06T07:30:37.286Z,101564.48
2019-05-06T07:31:44.380Z,101558.00
2019-05-06T07:32:52.779Z,101560.23
2019-05-06T07:34:02.501Z,101564.09
2019-05-06T07:35:09.074Z,101561.40
2019-05-06T07:36:16.183Z,101558.41
2019-05-06T07:37:22.974Z,101557.06
2019-05-06T07:38:32.366Z,101558.71
2019-05-06T07:39:38.927Z,101555.64
2019-05-06T07:40:48.243Z,101561.84
2019-05-06T07:41:57.928Z,101552.44
2019-05-06T07:43:23.515Z,101551.71
2019-05-06T07:44:58.668Z,101556.84
2019-05-06T07:46:14.103Z,101556.08
2019-05-06T07:47:28.516Z,101558.50
2019-05-06T07:48:35.276Z,101550.03
2019-05-06T07:49:43.167Z,101554.75
2019-05-06T07:50:51.940Z,101551.02
2019-05-06T07:51:58.585Z,101556.16
2019-05-06T07:53:09.677Z,101551.74
2019-05-06T07:54:16.392Z,101558.63
2019-05-06T07:55:23.231Z,101548.81
2019-05-06T07:56:32.211Z,101549.69
2019-05-06T07:57:38.822Z,101553.59
2019-05-06T07:58:45.549Z,101550.28
2019-05-06T07:59:52.633Z,101551.30
2019-05-06T08:00:59.523Z,101546.66
2019-05-06T08:02:06.440Z,101542.47
2019-05-06T08:03:14.022Z,101542.88
2019-05-06T08:04:23.430Z,101547.54
2019-05-06T08:05:32.186Z,101540.68
2019-05-06T08:06:38.586Z,101541.61
2019-05-06T08:07:45.338Z,101545.35
2019-05-06T08:08:53.725Z,101548.77
2019-05-06T08:10:02.193Z,101544.87
2019-05-06T08:11:09.479Z,101543.00
2019-05-06T08:12:16.396Z,101546.77
2019-05-06T08:13:23.703Z,101544.55
2019-05-06T08:14:43.438Z,101540.19
2019-05-06T08:15:52.696Z,101537.50
2019-05-06T08:17:03.257Z,101542.08
2019-05-06T08:18:12.549Z,101542.37
2019-05-06T08:19:19.400Z,101540.61
2019-05-06T08:20:37.417Z,101540.42
2019-05-06T08:21:45.793Z,101541.13
2019-05-06T08:23:08.679Z,101531.27
2019-05-06T08:24:15.394Z,101536.61
2019-05-06T08:25:22.937Z,101534.84
2019-05-06T08:26:32.250Z,101535.84
2019-05-06T08:27:39.139Z,101536.78
2019-05-06T08:28:46.153Z,101535.49
2019-05-06T08:29:53.393Z,101531.53
2019-05-06T08:31:02.369Z,101539.99
2019-05-06T08:32:09.060Z,101530.35
2019-05-06T08:33:16.021Z,101536.82
2019-05-06T08:34:22.763Z,101533.72
2019-05-06T08:35:29.830Z,101533.44
2019-05-06T08:37:12.071Z,101531.95
2019-05-06T08:38:19.026Z,101529.53
2019-05-06T08:39:25.862Z,101534.87
2019-05-06T08:40:32.605Z,101532.42
2019-05-06T08:41:39.824Z,101531.84
2019-05-06T08:42:46.770Z,101527.80
2019-05-06T08:43:53.626Z,101530.71
2019-05-06T08:45:02.244Z,101526.70
2019-05-06T08:46:09.673Z,101528.69
2019-05-06T08:47:16.385Z,101525.10
2019-05-06T08:48:23.223Z,101528.90
2019-05-06T08:49:32.478Z,101529.30
2019-05-06T08:50:56.395Z,101524.77
2019-05-06T08:52:09.968Z,101523.06
2019-05-06T08:53:28.012Z,101528.14
2019-05-06T08:54:44.904Z,101527.08
2019-05-06T08:55:52.865Z,101533.01
2019-05-06T08:57:02.455Z,101527.86
2019-05-06T08:58:09.035Z,101523.78
2019-05-06T08:59:15.770Z,101527.09
2019-05-06T09:00:22.855Z,101524.59
2019-05-06T09:01:49.827Z,101526.30
2019-05-06T09:02:56.544Z,101524.13
2019-05-06T09:04:11.387Z,101520.59
2019-05-06T09:05:12.625Z,101526.50
2019-05-06T09:06:29.764Z,101528.67
2019-05-06T09:07:28.148Z,101522.64
2019-05-06T09:08:35.107Z,101521.16
2019-05-06T09:09:42.190Z,101515.72
2019-05-06T09:10:49.481Z,101526.16
2019-05-06T09:11:56.970Z,101526.70
2019-05-06T09:13:03.837Z,101520.04
2019-05-06T09:14:13.367Z,101525.71
2019-05-06T09:15:19.067Z,101523.58
2019-05-06T09:16:25.803Z,101524.61
2019-05-06T09:17:33.000Z,101527.75
2019-05-06T09:18:42.616Z,101525.70
2019-05-06T09:19:49.493Z,101523.98
2019-05-06T09:20:56.211Z,101520.32
2019-05-06T09:22:03.337Z,101529.16
2019-05-06T09:23:12.294Z,101523.52
2019-05-06T09:24:18.535Z,101530.05
2019-05-06T09:25:26.110Z,101530.02
2019-05-06T09:26:40.003Z,101531.25
2019-05-06T09:27:54.378Z,101535.33
2019-05-06T09:29:08.084Z,101531.14
2019-05-06T09:30:24.232Z,101534.69
2019-05-06T09:31:36.247Z,101537.34
2019-05-06T09:32:44.455Z,101523.97
2019-05-06T09:33:59.177Z,101532.03
2019-05-06T09:35:07.279Z,101535.09
2019-05-06T09:36:14.018Z,101533.28
2019-05-06T09:37:23.571Z,101533.61
2019-05-06T09:38:32.054Z,101533.54
2019-05-06T09:39:38.481Z,101538.73
2019-05-06T09:40:45.208Z,101540.14
2019-05-06T09:41:57.829Z,101536.34
2019-05-06T09:43:04.486Z,101540.06
2019-05-06T09:44:09.553Z,101534.19
2019-05-06T09:45:17.194Z,101541.82
2019-05-06T09:46:23.940Z,101538.44
2019-05-06T09:47:55.601Z,101533.64
2019-05-06T09:49:19.754Z,101528.97
2019-05-06T09:50:46.133Z,101526.73
2019-05-06T09:51:52.894Z,101521.27
2019-05-06T09:53:02.470Z,101531.16
2019-05-06T09:54:32.201Z,101522.77
2019-05-06T09:56:04.143Z,101527.99
2019-05-06T09:57:14.872Z,101520.32
2019-05-06T09:58:22.871Z,101525.44
2019-05-06T09:59:32.059Z,101519.81
2019-05-06T10:00:43.157Z,101518.29
2019-05-06T10:01:52.804Z,101522.00
2019-05-06T10:03:00.193Z,101525.01
2019-05-06T10:04:09.903Z,101526.06
2019-05-06T10:05:17.272Z,101531.55
2019-05-06T10:06:24.024Z,101534.06
2019-05-06T10:07:30.750Z,101529.74
2019-05-06T10:08:37.504Z,101531.23
2019-05-06T10:09:44.668Z,101529.06
2019-05-06T10:10:58.695Z,101534.34
2019-05-06T10:12:01.938Z,101530.77
2019-05-06T10:13:08.976Z,101523.13
2019-05-06T10:14:15.715Z,101527.69
2019-05-06T10:15:23.891Z,101521.09
2019-05-06T10:16:32.527Z,101517.29
2019-05-06T10:17:39.530Z,101522.12
2019-05-06T10:18:46.313Z,101513.47
2019-05-06T10:19:53.398Z,101515.37
2019-05-06T10:21:00.127Z,101517.98
2019-05-06T10:22:07.559Z,101520.86
2019-05-06T10:23:15.316Z,101516.47
2019-05-06T10:24:22.067Z,101521.78
2019-05-06T10:25:29.301Z,101519.20
2019-05-06T10:26:43.186Z,101517.38
2019-05-06T10:27:52.508Z,101515.91
2019-05-06T10:29:37.031Z,101522.39
2019-05-06T10:30:43.851Z,101511.45
2019-05-06T10:31:56.692Z,101513.33
2019-05-06T10:33:05.106Z,101508.28
2019-05-06T10:34:13.848Z,101503.16
2019-05-06T10:35:22.187Z,101505.65
2019-05-06T10:36:39.623Z,101506.39
2019-05-06T10:38:12.371Z,101509.74
2019-05-06T10:39:24.234Z,101499.86
2019-05-06T10:40:44.118Z,101506.62
2019-05-06T10:41:50.215Z,101507.10
2019-05-06T10:43:46.719Z,101506.07
2019-05-06T10:45:12.397Z,101502.95
2019-05-06T10:46:19.364Z,101505.65
2019-05-06T10:47:26.444Z,101507.71
2019-05-06T10:48:34.492Z,101497.34
2019-05-06T10:49:42.056Z,101498.88
2019-05-06T10:50:53.422Z,101492.68
2019-05-06T10:52:12.570Z,101497.58
2019-05-06T10:53:23.001Z,101500.57
2019-05-06T10:54:31.806Z,101501.61
2019-05-06T10:55:40.044Z,101506.19
2019-05-06T10:56:57.052Z,101494.16
2019-05-06T10:58:02.680Z,101494.16
2019-05-06T10:59:10.156Z,101485.28
2019-05-06T11:00:19.378Z,101489.07
2019-05-06T11:01:33.070Z,101496.41
2019-05-06T11:02:58.431Z,101483.45
2019-05-06T11:04:05.479Z,101481.90
2019-05-06T11:05:13.335Z,101486.10
2019-05-06T11:06:22.087Z,101481.22
2019-05-06T11:07:32.106Z,101481.44
2019-05-06T11:08:37.601Z,101481.52
2019-05-06T11:09:44.664Z,101480.91
2019-05-06T11:10:53.501Z,101480.86
2019-05-06T11:12:00.166Z,101469.62
2019-05-06T11:13:07.099Z,101466.66
2019-05-06T11:14:13.886Z,101464.75
2019-05-06T11:15:23.375Z,101474.19
2019-05-06T11:16:29.505Z,101472.22
2019-05-06T11:17:36.340Z,101472.83
2019-05-06T11:18:43.074Z,101478.45
2019-05-06T11:19:50.219Z,101480.23
2019-05-06T11:20:57.493Z,101480.81
2019-05-06T11:22:04.686Z,101481.91
2019-05-06T11:23:11.432Z,101478.77
2019-05-06T11:24:18.536Z,101476.72
2019-05-06T11:25:25.805Z,101475.84
2019-05-06T11:26:32.528Z,101475.64
2019-05-06T11:27:41.790Z,101469.62
2019-05-06T11:29:00.197Z,101475.58
2019-05-06T11:30:14.043Z,101477.95
2019-05-06T11:31:33.246Z,101474.92
2019-05-06T11:33:07.995Z,101474.75
2019-05-06T11:34:39.434Z,101467.63
2019-05-06T11:36:05.018Z,101461.22
2019-05-06T11:37:47.023Z,101466.02
2019-05-06T11:38:49.023Z,101468.04
2019-05-06T11:39:56.089Z,101462.42
2019-05-06T11:41:03.163Z,101462.84
2019-05-06T11:42:24.909Z,101464.44
2019-05-06T11:43:19.173Z,101467.58
2019-05-06T11:44:26.241Z,101469.42
2019-05-06T11:45:33.322Z,101463.59
2019-05-06T11:46:40.051Z,101462.53
2019-05-06T11:47:46.814Z,101464.72
2019-05-06T11:48:53.549Z,101464.72
2019-05-06T11:50:02.549Z,101467.36
2019-05-06T11:51:12.685Z,101454.42
2019-05-06T11:52:19.223Z,101463.30
2019-05-06T11:53:26.081Z,101459.70
2019-05-06T11:54:33.732Z,101458.66
2019-05-06T11:55:41.025Z,101464.33
2019-05-06T11:56:52.145Z,101464.88
2019-05-06T11:57:56.527Z,101468.20
2019-05-06T11:59:03.606Z,101464.45
2019-05-06T12:00:15.361Z,101465.26
2019-05-06T12:01:28.093Z,101468.73
2019-05-06T12:02:35.149Z,101463.57
2019-05-06T12:03:42.773Z,101463.23
2019-05-06T12:04:49.763Z,101466.19
2019-05-06T12:05:56.808Z,101464.23
2019-05-06T12:07:11.428Z,101465.66
2019-05-06T12:08:15.622Z,101465.19
2019-05-06T12:09:22.239Z,101462.56
2019-05-06T12:10:29.831Z,101462.72
2019-05-06T12:11:36.627Z,101469.02
2019-05-06T12:12:43.358Z,101464.62
2019-05-06T12:13:50.129Z,101465.26
2019-05-06T12:14:56.884Z,101468.47
2019-05-06T12:16:03.666Z,101464.41
2019-05-06T12:17:12.702Z,101462.59
2019-05-06T12:18:18.939Z,101464.51
2019-05-06T12:19:25.714Z,101464.34
2019-05-06T12:20:32.957Z,101462.34
2019-05-06T12:21:39.806Z,101467.25
2019-05-06T12:22:47.178Z,101465.48
2019-05-06T12:23:54.044Z,101459.27
2019-05-06T12:25:04.417Z,101458.51
2019-05-06T12:26:09.649Z,101461.50
2019-05-06T12:27:35.251Z,101464.73
2019-05-06T12:28:43.430Z,101459.42
2019-05-06T12:29:52.792Z,101460.86
2019-05-06T12:30:59.239Z,101469.04
2019-05-06T12:32:33.187Z,101470.08
2019-05-06T12:33:47.103Z,101475.34
2019-05-06T12:34:54.426Z,101474.14
2019-05-06T12:36:03.035Z,101472.81
2019-05-06T12:37:12.184Z,101485.60
2019-05-06T12:38:30.450Z,101489.87
2019-05-06T12:39:34.597Z,101490.03
2019-05-06T12:40:42.905Z,101492.27
2019-05-06T12:42:11.867Z,101489.33
2019-05-06T12:43:36.710Z,101486.84
2019-05-06T12:44:52.959Z,101483.72
2019-05-06T12:46:13.460Z,101475.06
2019-05-06T12:47:32.625Z,101475.69
2019-05-06T12:48:39.711Z,101467.84
2019-05-06T12:49:46.456Z,101470.72
2019-05-06T12:50:53.497Z,101470.08
2019-05-06T12:52:00.703Z,101469.23
2019-05-06T12:53:08.231Z,101471.75
2019-05-06T12:54:14.969Z,101462.77
2019-05-06T12:55:25.479Z,101465.31
2019-05-06T12:56:32.312Z,101470.70
2019-05-06T12:57:39.162Z,101466.34
2019-05-06T12:58:45.925Z,101468.77
2019-05-06T13:00:04.861Z,101466.45
2019-05-06T13:01:13.689Z,101471.93
2019-05-06T13:02:20.064Z,101473.00
2019-05-06T13:03:27.005Z,101468.45
2019-05-06T13:04:50.281Z,101473.39
2019-05-06T13:05:42.868Z,101470.68
2019-05-06T13:06:52.075Z,101468.52
2019-05-06T13:07:58.741Z,101471.52
2019-05-06T13:09:07.078Z,101470.98
2019-05-06T13:10:14.566Z,101465.23
2019-05-06T13:11:21.338Z,101461.24
2019-05-06T13:12:30.347Z,101459.48
2019-05-06T13:13:37.118Z,101461.23
2019-05-06T13:14:44.273Z,101455.60
2019-05-06T13:15:52.741Z,101463.58
2019-05-06T13:16:59.665Z,101455.91
2019-05-06T13:18:07.563Z,101456.34
2019-05-06T13:19:16.404Z,101463.11
2019-05-06T13:20:23.670Z,101451.47
2019-05-06T13:21:32.565Z,101452.44
2019-05-06T13:23:09.618Z,101452.34
2019-05-06T13:24:12.449Z,101447.03
2019-05-06T13:25:19.315Z,101444.78
2019-05-06T13:26:26.186Z,101455.44